Language: 


Des rapports , des résumés tant et plus, au choix de chacun....


Données statistiques de la station
Quotidien Rapport Mars 12, 2017 Unités:  Métrique    Anglais   les deux
« Précédent Jour
Suivant Jour »
Quotidien Hebdomadaire Mensuel Annuel Actuel
  Haut: Bas: Moyen:
Température: 17.2 °C 3.6 °C 9.3 °C
Pt de rosée: 7.8 °C 2.1 °C 4.6 °C
Humidité: 95 % 47 % 74 %
Vitesse du vent: 12.2 km/h 0.0 km/h 3.4 km/h
Rafales: 16.3 km/h - -
Vent:- - SSW
Pression: 1016.8 hPa 1011.1 hPa -
Précipitation: 0.0 mm    
Historical Graphs
 
 
Données statistiques pour Mars 12, 2017
Heure Température Point de rosée Pression Vent Vitesse du vent Refales Humidité Pluie (taux horaire)
00:02 6.4 °C 3.2 °C 1015.1 hPa NNE 4.7 km/h 5.0 km/h 80 % 0.0 mm
00:07 6.4 °C 3.2 °C 1015.1 hPa North 4.0 km/h 5.0 km/h 80 % 0.0 mm
00:12 6.4 °C 3.2 °C 1015.1 hPa North 5.0 km/h 5.8 km/h 80 % 0.0 mm
00:17 6.4 °C 3.4 °C 1015.1 hPa North 4.3 km/h 5.8 km/h 81 % 0.0 mm
00:22 6.4 °C 3.4 °C 1015.1 hPa NNE 4.7 km/h 5.5 km/h 81 % 0.0 mm
00:27 6.4 °C 3.3 °C 1015.1 hPa NNE 2.1 km/h 5.5 km/h 81 % 0.0 mm
00:32 6.4 °C 3.3 °C 1015.1 hPa NNE 3.5 km/h 4.7 km/h 81 % 0.0 mm
00:37 6.3 °C 3.3 °C 1015.1 hPa Calm   4.7 km/h 81 % 0.0 mm
00:42 6.2 °C 3.2 °C 1015.1 hPa NNE 5.0 km/h 5.0 km/h 81 % 0.0 mm
00:47 6.2 °C 3.2 °C 1015.1 hPa North 4.0 km/h 5.5 km/h 81 % 0.0 mm
00:52 6.2 °C 3.2 °C 1015.1 hPa North 4.7 km/h 5.8 km/h 81 % 0.0 mm
00:57 6.2 °C 3.3 °C 1015.1 hPa NNE 4.3 km/h 5.8 km/h 82 % 0.0 mm
01:02 6.2 °C 3.2 °C 1015.1 hPa North 5.5 km/h 6.1 km/h 81 % 0.0 mm
01:07 6.2 °C 3.2 °C 1015.1 hPa North 4.7 km/h 6.1 km/h 81 % 0.0 mm
01:12 6.1 °C 3.1 °C 1015.1 hPa North 3.5 km/h 5.5 km/h 81 % 0.0 mm
01:17 6.1 °C 3.2 °C 1015.1 hPa North 5.5 km/h 6.1 km/h 82 % 0.0 mm
01:22 6.1 °C 3.2 °C 1015.1 hPa NNE 5.0 km/h 6.4 km/h 82 % 0.0 mm
01:28 6.0 °C 3.1 °C 1015.1 hPa North 3.5 km/h 6.4 km/h 82 % 0.0 mm
01:33 5.9 °C 3.1 °C 1015.1 hPa NNE 4.3 km/h 5.5 km/h 82 % 0.0 mm
01:38 5.9 °C 3.1 °C 1015.1 hPa North 5.8 km/h 6.1 km/h 82 % 0.0 mm
01:43 5.8 °C 3.1 °C 1015.1 hPa North 3.5 km/h 6.1 km/h 83 % 0.0 mm
01:48 5.7 °C 3.0 °C 1015.1 hPa NNE 5.0 km/h 6.1 km/h 83 % 0.0 mm
01:53 5.7 °C 3.0 °C 1014.1 hPa North 5.8 km/h 5.8 km/h 83 % 0.0 mm
01:58 5.6 °C 2.9 °C 1014.1 hPa NNE 4.3 km/h 5.8 km/h 83 % 0.0 mm
02:03 5.4 °C 2.7 °C 1014.1 hPa NNE 2.6 km/h 4.7 km/h 83 % 0.0 mm
02:08 5.3 °C 2.6 °C 1014.1 hPa NE 4.0 km/h 4.7 km/h 83 % 0.0 mm
02:13 5.1 °C 2.4 °C 1014.1 hPa NE 4.0 km/h 4.7 km/h 83 % 0.0 mm
02:18 5.0 °C 2.5 °C 1014.1 hPa NNE 3.2 km/h 4.7 km/h 84 % 0.0 mm
02:23 5.0 °C 2.5 °C 1014.1 hPa NNE 4.0 km/h 4.7 km/h 84 % 0.0 mm
02:28 4.9 °C 2.4 °C 1014.1 hPa Calm   4.3 km/h 84 % 0.0 mm
02:33 5.0 °C 2.7 °C 1014.1 hPa North 4.0 km/h 4.3 km/h 85 % 0.0 mm
02:38 5.0 °C 2.8 °C 1014.1 hPa North 5.0 km/h 5.5 km/h 86 % 0.0 mm
02:43 5.1 °C 2.9 °C 1014.1 hPa North 6.4 km/h 6.9 km/h 86 % 0.0 mm
02:48 5.2 °C 3.1 °C 1014.1 hPa NNE 5.8 km/h 6.9 km/h 86 % 0.0 mm
02:53 5.2 °C 3.1 °C 1014.1 hPa NNE 5.5 km/h 6.4 km/h 86 % 0.0 mm
02:58 5.2 °C 3.1 °C 1014.1 hPa NNE 4.3 km/h 6.4 km/h 86 % 0.0 mm
03:03 5.1 °C 2.9 °C 1014.1 hPa North 5.5 km/h 6.1 km/h 86 % 0.0 mm
03:08 5.1 °C 2.9 °C 1013.1 hPa NE 4.0 km/h 6.4 km/h 86 % 0.0 mm
03:13 5.0 °C 2.8 °C 1013.1 hPa North 4.7 km/h 6.4 km/h 86 % 0.0 mm
03:18 5.0 °C 2.8 °C 1013.1 hPa Calm   5.5 km/h 86 % 0.0 mm
03:23 5.0 °C 3.0 °C 1013.1 hPa North 4.7 km/h 5.5 km/h 87 % 0.0 mm
03:28 5.0 °C 3.0 °C 1013.1 hPa NNE 4.0 km/h 5.8 km/h 87 % 0.0 mm
03:33 4.9 °C 2.9 °C 1013.1 hPa NNE 4.0 km/h 5.8 km/h 87 % 0.0 mm
03:38 4.9 °C 2.9 °C 1013.1 hPa NE 4.0 km/h 5.8 km/h 87 % 0.0 mm
03:43 4.9 °C 2.9 °C 1013.1 hPa North 4.7 km/h 6.1 km/h 87 % 0.0 mm
03:48 4.9 °C 2.9 °C 1013.1 hPa NNE 4.7 km/h 6.1 km/h 87 % 0.0 mm
03:53 5.0 °C 3.2 °C 1013.1 hPa NNE 4.3 km/h 5.8 km/h 88 % 0.0 mm
03:58 5.0 °C 3.2 °C 1013.1 hPa NE 5.5 km/h 5.8 km/h 88 % 0.0 mm
04:03 5.0 °C 3.2 °C 1013.1 hPa NNE 4.7 km/h 5.8 km/h 88 % 0.0 mm
04:08 5.0 °C 3.2 °C 1013.1 hPa NNE 4.7 km/h 5.8 km/h 88 % 0.0 mm
04:13 5.1 °C 3.4 °C 1013.1 hPa North 4.7 km/h 5.5 km/h 89 % 0.0 mm
04:18 5.2 °C 3.6 °C 1013.1 hPa NNE 6.1 km/h 6.4 km/h 89 % 0.0 mm
04:23 5.1 °C 3.3 °C 1013.1 hPa NNE 4.7 km/h 6.4 km/h 88 % 0.0 mm
04:28 4.9 °C 3.1 °C 1013.1 hPa NNE 4.3 km/h 6.4 km/h 88 % 0.0 mm
04:33 4.9 °C 3.1 °C 1013.1 hPa NE 5.5 km/h 5.8 km/h 88 % 0.0 mm
04:38 4.8 °C 3.0 °C 1013.1 hPa NNE 4.3 km/h 5.8 km/h 88 % 0.0 mm
04:43 4.8 °C 3.2 °C 1013.1 hPa NNE 4.3 km/h 5.5 km/h 89 % 0.0 mm
04:48 4.8 °C 3.2 °C 1013.1 hPa NNE 5.0 km/h 5.8 km/h 89 % 0.0 mm
04:53 4.8 °C 3.2 °C 1013.1 hPa NNE 4.0 km/h 5.8 km/h 89 % 0.0 mm
04:59 4.7 °C 3.1 °C 1013.1 hPa NNE 3.2 km/h 5.5 km/h 89 % 0.0 mm
05:04 4.7 °C 3.1 °C 1013.1 hPa NNE 2.6 km/h 5.0 km/h 89 % 0.0 mm
05:09 4.7 °C 3.1 °C 1013.1 hPa NNE 5.0 km/h 5.0 km/h 89 % 0.0 mm
05:14 4.7 °C 3.2 °C 1013.1 hPa NNE 3.2 km/h 5.0 km/h 90 % 0.0 mm
05:19 4.7 °C 3.2 °C 1013.1 hPa North 4.3 km/h 5.0 km/h 90 % 0.0 mm
05:24 4.7 °C 3.2 °C 1013.1 hPa North 4.0 km/h 5.5 km/h 90 % 0.0 mm
05:29 4.7 °C 3.2 °C 1013.1 hPa North 3.2 km/h 5.5 km/h 90 % 0.0 mm
05:34 4.7 °C 3.2 °C 1013.1 hPa North 4.3 km/h 6.1 km/h 90 % 0.0 mm
05:39 4.7 °C 3.2 °C 1012.1 hPa NNE 4.3 km/h 6.1 km/h 90 % 0.0 mm
05:44 4.7 °C 3.2 °C 1012.1 hPa NNE 5.0 km/h 6.1 km/h 90 % 0.0 mm
05:49 4.7 °C 3.2 °C 1012.1 hPa NNE 5.8 km/h 6.1 km/h 90 % 0.0 mm
05:54 4.6 °C 3.1 °C 1012.1 hPa North 4.0 km/h 6.1 km/h 90 % 0.0 mm
05:59 4.6 °C 3.1 °C 1012.1 hPa Calm   5.0 km/h 90 % 0.0 mm
06:04 4.6 °C 3.1 °C 1012.1 hPa Calm   4.0 km/h 90 % 0.0 mm
06:09 4.6 °C 3.1 °C 1012.1 hPa Calm     90 % 0.0 mm
06:14 4.6 °C 3.1 °C 1012.1 hPa Calm     90 % 0.0 mm
06:19 4.6 °C 3.1 °C 1012.1 hPa Calm     90 % 0.0 mm
06:24 4.5 °C 3.0 °C 1012.1 hPa Calm     90 % 0.0 mm
06:29 4.5 °C 3.0 °C 1012.1 hPa Calm     90 % 0.0 mm
06:34 4.4 °C 2.9 °C 1012.1 hPa Calm     90 % 0.0 mm
06:39 4.3 °C 2.8 °C 1012.1 hPa Calm     90 % 0.0 mm
06:44 4.3 °C 2.8 °C 1012.1 hPa Calm     90 % 0.0 mm
06:49 4.2 °C 2.7 °C 1012.1 hPa Calm     90 % 0.0 mm
06:54 4.2 °C 2.7 °C 1012.1 hPa Calm     90 % 0.0 mm
06:59 4.3 °C 2.8 °C 1012.1 hPa Calm     90 % 0.0 mm
07:04 4.3 °C 2.9 °C 1012.1 hPa Calm     91 % 0.0 mm
07:09 4.2 °C 2.7 °C 1012.1 hPa Calm     90 % 0.0 mm
07:14 4.0 °C 2.5 °C 1012.1 hPa Calm   2.1 km/h 90 % 0.0 mm
07:19 3.9 °C 2.4 °C 1012.1 hPa Calm   2.1 km/h 90 % 0.0 mm
07:24 3.7 °C 2.2 °C 1012.1 hPa Calm     90 % 0.0 mm
07:29 3.6 °C 2.1 °C 1012.1 hPa ENE 2.1 km/h 3.2 km/h 90 % 0.0 mm
07:34 3.7 °C 2.4 °C 1012.1 hPa East 4.3 km/h 4.3 km/h 91 % 0.0 mm
07:39 3.9 °C 2.6 °C 1012.1 hPa ENE 4.0 km/h 4.3 km/h 91 % 0.0 mm
07:44 4.0 °C 2.8 °C 1012.1 hPa ENE 3.5 km/h 4.3 km/h 92 % 0.0 mm
07:49 4.1 °C 2.9 °C 1012.1 hPa ENE 1.8 km/h 4.3 km/h 92 % 0.0 mm
07:54 4.3 °C 3.3 °C 1012.1 hPa Calm   3.5 km/h 93 % 0.0 mm
07:59 4.6 °C 3.6 °C 1012.1 hPa Calm   1.8 km/h 93 % 0.0 mm
08:04 5.0 °C 4.1 °C 1012.1 hPa Calm   1.8 km/h 94 % 0.0 mm
08:09 5.6 °C 4.8 °C 1011.1 hPa Calm   3.2 km/h 95 % 0.0 mm
08:14 6.2 °C 5.4 °C 1011.1 hPa Calm   3.2 km/h 95 % 0.0 mm
08:19 6.7 °C 5.9 °C 1011.1 hPa Calm   2.6 km/h 95 % 0.0 mm
08:24 7.3 °C 6.4 °C 1012.1 hPa Calm   1.8 km/h 94 % 0.0 mm
08:29 7.9 °C 7.1 °C 1012.1 hPa ESE 1.4 km/h 2.6 km/h 94 % 0.0 mm
08:34 8.4 °C 7.4 °C 1012.1 hPa East 4.0 km/h 4.3 km/h 93 % 0.0 mm
08:39 8.9 °C 7.7 °C 1012.1 hPa ESE 5.0 km/h 6.9 km/h 92 % 0.0 mm
08:44 8.9 °C 7.1 °C 1012.1 hPa ESE 4.0 km/h 6.9 km/h 88 % 0.0 mm
08:49 8.7 °C 6.5 °C 1012.1 hPa ESE 4.3 km/h 6.4 km/h 86 % 0.0 mm
08:54 8.9 °C 6.6 °C 1012.1 hPa SE 3.2 km/h 6.1 km/h 85 % 0.0 mm
08:59 9.6 °C 7.2 °C 1012.1 hPa SE 1.4 km/h 5.8 km/h 85 % 0.0 mm
09:04 9.9 °C 7.3 °C 1012.1 hPa Calm   4.3 km/h 84 % 0.0 mm
09:10 9.9 °C 6.8 °C 1013.1 hPa SSE 4.3 km/h 5.0 km/h 81 % 0.0 mm
09:15 10.1 °C 6.8 °C 1013.1 hPa South 2.1 km/h 5.0 km/h 80 % 0.0 mm
09:20 10.5 °C 7.4 °C 1013.1 hPa SSE 5.8 km/h 6.4 km/h 81 % 0.0 mm
09:25 11.0 °C 7.7 °C 1013.1 hPa South 4.7 km/h 6.9 km/h 80 % 0.0 mm
09:30 11.6 °C 7.8 °C 1013.1 hPa SSE 5.5 km/h 7.6 km/h 78 % 0.0 mm
09:35 11.8 °C 7.3 °C 1013.1 hPa SSE 9.0 km/h 9.3 km/h 74 % 0.0 mm
09:40 11.8 °C 7.2 °C 1013.1 hPa South 5.5 km/h 10.5 km/h 73 % 0.0 mm
09:45 12.2 °C 7.3 °C 1013.1 hPa South 6.4 km/h 10.5 km/h 72 % 0.0 mm
09:50 12.4 °C 7.3 °C 1013.1 hPa SSW 6.9 km/h 10.1 km/h 71 % 0.0 mm
09:55 12.4 °C 6.7 °C 1013.1 hPa SSW 9.7 km/h 10.1 km/h 68 % 0.0 mm
10:00 12.3 °C 6.4 °C 1013.1 hPa South 4.7 km/h 10.5 km/h 67 % 0.0 mm
10:05 12.6 °C 6.3 °C 1013.1 hPa SSE 5.0 km/h 10.5 km/h 66 % 0.0 mm
10:10 12.8 °C 6.4 °C 1013.1 hPa SSE 10.5 km/h 10.5 km/h 65 % 0.0 mm
10:15 12.7 °C 5.6 °C 1013.1 hPa SSE 6.4 km/h 10.5 km/h 62 % 0.0 mm
10:20 12.7 °C 5.6 °C 1013.1 hPa SSW 6.1 km/h 10.5 km/h 62 % 0.0 mm
10:25 12.9 °C 6.1 °C 1013.1 hPa SSE 4.0 km/h 10.8 km/h 63 % 0.0 mm
10:30 13.2 °C 6.1 °C 1013.1 hPa SSE 4.7 km/h 10.8 km/h 62 % 0.0 mm
10:35 13.3 °C 5.7 °C 1013.1 hPa SSW 8.7 km/h 13.0 km/h 60 % 0.0 mm
10:40 13.5 °C 5.9 °C 1013.1 hPa SSW 9.0 km/h 13.0 km/h 60 % 0.0 mm
10:45 13.8 °C 5.7 °C 1013.1 hPa WSW 8.7 km/h 15.1 km/h 58 % 0.0 mm
10:50 14.0 °C 5.6 °C 1013.1 hPa SSE 6.9 km/h 15.1 km/h 57 % 0.0 mm
10:55 14.1 °C 5.4 °C 1012.1 hPa South 9.0 km/h 16.3 km/h 56 % 0.0 mm
11:00 14.1 °C 5.2 °C 1012.1 hPa South 9.7 km/h 16.3 km/h 55 % 0.0 mm
11:05 14.1 °C 5.2 °C 1012.1 hPa SSW 8.7 km/h 12.6 km/h 55 % 0.0 mm
11:10 14.2 °C 5.6 °C 1012.1 hPa SSE 6.4 km/h 10.5 km/h 56 % 0.0 mm
11:15 14.4 °C 5.7 °C 1012.1 hPa SSE 5.8 km/h 12.2 km/h 56 % 0.0 mm
11:20 14.6 °C 5.9 °C 1012.1 hPa SE 4.3 km/h 12.2 km/h 56 % 0.0 mm
11:21 14.7 °C 6.0 °C 1012.1 hPa South 5.5 km/h 10.1 km/h 56 % 0.0 mm
11:26 15.0 °C 5.8 °C 1012.1 hPa SSE 6.1 km/h 13.0 km/h 54 % 0.0 mm
11:31 15.1 °C 5.8 °C 1012.1 hPa SSE 12.2 km/h 13.0 km/h 54 % 0.0 mm
11:36 15.3 °C 5.8 °C 1012.1 hPa South 4.7 km/h 12.6 km/h 53 % 0.0 mm
11:41 15.4 °C 5.8 °C 1012.1 hPa South 5.0 km/h 12.6 km/h 53 % 0.0 mm
11:46 15.4 °C 5.8 °C 1012.1 hPa SSW 6.1 km/h 9.7 km/h 53 % 0.0 mm
11:51 15.4 °C 5.3 °C 1012.1 hPa South 5.8 km/h 9.7 km/h 51 % 0.0 mm
11:56 15.7 °C 5.6 °C 1013.1 hPa SSW 5.8 km/h 9.7 km/h 51 % 0.0 mm
12:01 15.9 °C 5.4 °C 1013.1 hPa South 6.4 km/h 9.0 km/h 50 % 0.0 mm
12:06 16.0 °C 5.6 °C 1013.1 hPa SSW 5.5 km/h 9.0 km/h 50 % 0.0 mm
12:11 16.0 °C 5.6 °C 1012.1 hPa SSW 4.7 km/h 8.7 km/h 50 % 0.0 mm
12:16 15.8 °C 5.4 °C 1012.1 hPa SSE 8.7 km/h 9.3 km/h 50 % 0.0 mm
12:21 15.6 °C 5.5 °C 1012.1 hPa SSW 5.0 km/h 9.3 km/h 51 % 0.0 mm
12:26 15.5 °C 5.4 °C 1012.1 hPa WSW 4.0 km/h 8.7 km/h 51 % 0.0 mm
12:31 15.5 °C 5.1 °C 1012.1 hPa SE 1.4 km/h 7.6 km/h 50 % 0.0 mm
12:37 15.5 °C 5.4 °C 1012.1 hPa South 5.8 km/h 7.2 km/h 51 % 0.0 mm
12:42 15.4 °C 5.0 °C 1013.1 hPa SSW 5.8 km/h 6.9 km/h 50 % 0.0 mm
12:47 15.4 °C 5.3 °C 1013.1 hPa SSW 5.8 km/h 7.2 km/h 51 % 0.0 mm
12:52 15.5 °C 5.4 °C 1013.1 hPa Calm   7.2 km/h 51 % 0.0 mm
12:57 15.7 °C 5.3 °C 1013.1 hPa South 3.2 km/h 6.4 km/h 50 % 0.0 mm
13:02 16.1 °C 5.7 °C 1013.1 hPa South 4.7 km/h 9.7 km/h 50 % 0.0 mm
13:07 16.4 °C 5.9 °C 1013.1 hPa SSE 4.7 km/h 9.7 km/h 50 % 0.0 mm
13:12 16.8 °C 6.0 °C 1013.1 hPa SSE 1.8 km/h 9.3 km/h 49 % 0.0 mm
13:17 17.2 °C 6.1 °C 1013.1 hPa SW 6.1 km/h 9.3 km/h 48 % 0.0 mm
13:22 17.2 °C 6.1 °C 1013.1 hPa WSW 6.9 km/h 6.9 km/h 48 % 0.0 mm
13:27 17.2 °C 6.1 °C 1012.1 hPa South 5.0 km/h 7.6 km/h 48 % 0.0 mm
13:32 17.2 °C 5.7 °C 1012.1 hPa SSW 2.1 km/h 11.6 km/h 47 % 0.0 mm
13:37 16.9 °C 5.8 °C 1012.1 hPa West 5.0 km/h 11.6 km/h 48 % 0.0 mm
13:42 16.7 °C 5.6 °C 1012.1 hPa SSE 4.7 km/h 8.7 km/h 48 % 0.0 mm
13:47 16.8 °C 5.8 °C 1012.1 hPa South 4.0 km/h 6.4 km/h 48 % 0.0 mm
13:52 16.6 °C 5.5 °C 1012.1 hPa WSW 6.1 km/h 6.4 km/h 48 % 0.0 mm
13:57 16.4 °C 5.4 °C 1012.1 hPa West 5.5 km/h 6.1 km/h 48 % 0.0 mm
14:02 16.4 °C 5.3 °C 1012.1 hPa West 1.4 km/h 6.9 km/h 48 % 0.0 mm
14:07 16.4 °C 5.4 °C 1012.1 hPa Calm   6.9 km/h 48 % 0.0 mm
14:12 16.8 °C 5.7 °C 1012.1 hPa SW 4.0 km/h 5.8 km/h 48 % 0.0 mm
14:17 17.1 °C 5.9 °C 1012.1 hPa West 4.3 km/h 5.0 km/h 48 % 0.0 mm
14:22 17.1 °C 5.7 °C 1012.1 hPa WSW 4.3 km/h 4.7 km/h 47 % 0.0 mm
14:27 17.1 °C 5.9 °C 1012.1 hPa Calm   6.1 km/h 48 % 0.0 mm
14:33 16.7 °C 5.3 °C 1012.1 hPa West 2.1 km/h 6.9 km/h 47 % 0.0 mm
14:38 16.6 °C 5.2 °C 1012.1 hPa WNW 3.5 km/h 6.9 km/h 47 % 0.0 mm
14:43 16.4 °C 5.4 °C 1012.1 hPa Calm   5.0 km/h 48 % 0.0 mm
14:48 16.4 °C 5.0 °C 1012.1 hPa West 2.1 km/h 7.9 km/h 47 % 0.0 mm
14:53 16.4 °C 5.3 °C 1012.1 hPa Calm   7.9 km/h 48 % 0.0 mm
14:58 16.4 °C 5.3 °C 1012.1 hPa Calm   4.7 km/h 48 % 0.0 mm
15:03 16.3 °C 4.9 °C 1012.1 hPa Calm   4.0 km/h 47 % 0.0 mm
15:08 16.4 °C 5.3 °C 1012.1 hPa Calm   4.7 km/h 48 % 0.0 mm
15:13 16.4 °C 5.3 °C 1012.1 hPa Calm   5.5 km/h 48 % 0.0 mm
15:18 16.4 °C 5.4 °C 1012.1 hPa WSW 3.5 km/h 5.5 km/h 48 % 0.0 mm
15:23 16.7 °C 5.9 °C 1012.1 hPa WNW 4.0 km/h 5.0 km/h 49 % 0.0 mm
15:28 16.7 °C 5.6 °C 1012.1 hPa Calm   5.0 km/h 48 % 0.0 mm
15:33 16.7 °C 5.9 °C 1012.1 hPa Calm   4.0 km/h 49 % 0.0 mm
15:38 16.7 °C 5.6 °C 1012.1 hPa Calm   4.0 km/h 48 % 0.0 mm
15:43 16.7 °C 5.9 °C 1012.1 hPa WNW 1.4 km/h 4.0 km/h 49 % 0.0 mm
15:48 16.3 °C 5.6 °C 1012.1 hPa Calm   5.8 km/h 49 % 0.0 mm
15:53 16.2 °C 5.4 °C 1012.1 hPa Calm   5.8 km/h 49 % 0.0 mm
15:58 16.2 °C 5.4 °C 1012.1 hPa Calm   4.3 km/h 49 % 0.0 mm
16:06 16.0 °C 5.3 °C 1012.1 hPa North 6.1 km/h 6.1 km/h 49 % 0.0 mm
18:32 13.1 °C 5.9 °C 1013.1 hPa North 2.1 km/h 6.9 km/h 62 % 0.0 mm
18:37 12.8 °C 6.2 °C 1013.1 hPa North 3.5 km/h 6.9 km/h 64 % 0.0 mm
18:42 12.7 °C 6.1 °C 1013.1 hPa WNW 5.8 km/h 8.7 km/h 64 % 0.0 mm
18:47 12.7 °C 6.2 °C 1013.1 hPa North 3.2 km/h 8.7 km/h 65 % 0.0 mm
18:52 12.4 °C 6.3 °C 1014.1 hPa NNW 5.0 km/h 7.9 km/h 66 % 0.0 mm
18:57 12.2 °C 6.5 °C 1014.1 hPa NW 4.7 km/h 9.7 km/h 68 % 0.0 mm
19:02 12.1 °C 6.6 °C 1014.1 hPa NNW 4.7 km/h 9.7 km/h 69 % 0.0 mm
19:07 11.9 °C 6.7 °C 1014.1 hPa North 6.4 km/h 9.3 km/h 70 % 0.0 mm
19:12 11.8 °C 6.4 °C 1014.1 hPa NNW 5.0 km/h 9.3 km/h 70 % 0.0 mm
19:17 11.6 °C 6.3 °C 1014.1 hPa NW 3.2 km/h 6.9 km/h 70 % 0.0 mm
19:22 11.4 °C 6.2 °C 1015.1 hPa North 1.8 km/h 6.1 km/h 70 % 0.0 mm
19:27 11.3 °C 6.2 °C 1015.1 hPa Calm   6.9 km/h 71 % 0.0 mm
19:32 11.1 °C 6.0 °C 1015.1 hPa NNW 4.7 km/h 6.9 km/h 71 % 0.0 mm
19:37 10.9 °C 5.8 °C 1015.1 hPa Calm   5.8 km/h 71 % 0.0 mm
19:42 10.7 °C 5.8 °C 1015.1 hPa WNW 2.1 km/h 5.0 km/h 72 % 0.0 mm
19:47 10.6 °C 5.7 °C 1015.1 hPa Calm   5.0 km/h 72 % 0.0 mm
19:52 10.4 °C 5.8 °C 1015.1 hPa NNW 1.4 km/h 4.0 km/h 73 % 0.0 mm
19:57 10.2 °C 5.6 °C 1015.1 hPa Calm   4.0 km/h 73 % 0.0 mm
20:02 10.0 °C 5.4 °C 1015.1 hPa Calm   4.0 km/h 73 % 0.0 mm
20:07 9.8 °C 5.4 °C 1015.1 hPa Calm   3.5 km/h 74 % 0.0 mm
20:12 9.7 °C 5.3 °C 1015.1 hPa NW 1.4 km/h 3.5 km/h 74 % 0.0 mm
20:17 9.5 °C 5.3 °C 1015.1 hPa Calm   3.2 km/h 75 % 0.0 mm
20:22 9.3 °C 5.1 °C 1015.1 hPa Calm   3.2 km/h 75 % 0.0 mm
20:27 9.2 °C 5.0 °C 1015.1 hPa WNW 3.5 km/h 3.5 km/h 75 % 0.0 mm
20:32 9.1 °C 5.1 °C 1015.1 hPa NNW 4.0 km/h 4.0 km/h 76 % 0.0 mm
20:37 9.0 °C 5.0 °C 1015.1 hPa North 3.2 km/h 5.5 km/h 76 % 0.0 mm
20:42 8.9 °C 5.1 °C 1015.1 hPa WNW 3.2 km/h 5.5 km/h 77 % 0.0 mm
20:47 8.8 °C 5.0 °C 1015.1 hPa North 3.2 km/h 5.5 km/h 77 % 0.0 mm
20:52 8.7 °C 5.3 °C 1016.1 hPa NW 5.5 km/h 5.8 km/h 79 % 0.0 mm
20:57 8.6 °C 5.2 °C 1016.1 hPa NW 2.1 km/h 9.0 km/h 79 % 0.0 mm
21:02 8.5 °C 5.1 °C 1016.1 hPa Calm   9.0 km/h 79 % 0.0 mm
21:07 8.4 °C 5.2 °C 1016.1 hPa NE 6.4 km/h 8.7 km/h 80 % 0.0 mm
21:12 8.3 °C 5.1 °C 1016.1 hPa Calm   8.7 km/h 80 % 0.0 mm
21:17 8.2 °C 5.2 °C 1016.1 hPa WNW 1.8 km/h 6.9 km/h 81 % 0.0 mm
21:22 8.1 °C 5.1 °C 1016.8 hPa North 2.6 km/h 6.4 km/h 81 % 0.0 mm
21:27 8.1 °C 5.2 °C 1016.8 hPa WNW 5.5 km/h 6.9 km/h 82 % 0.0 mm
21:32 7.9 °C 5.1 °C 1016.8 hPa North 4.3 km/h 7.6 km/h 82 % 0.0 mm
21:37 7.9 °C 5.1 °C 1016.8 hPa NNE 8.7 km/h 8.7 km/h 82 % 0.0 mm
21:42 7.8 °C 4.9 °C 1016.8 hPa NNW 7.6 km/h 8.7 km/h 82 % 0.0 mm
21:47 7.7 °C 5.1 °C 1016.8 hPa WNW 3.2 km/h 8.7 km/h 83 % 0.0 mm
21:52 7.7 °C 4.9 °C 1016.8 hPa West 2.1 km/h 7.6 km/h 83 % 0.0 mm
21:57 7.6 °C 4.7 °C 1016.8 hPa WNW 4.0 km/h 5.8 km/h 82 % 0.0 mm
22:02 7.3 °C 4.5 °C 1016.8 hPa Calm   6.4 km/h 82 % 0.0 mm
22:07 7.3 °C 4.4 °C 1016.8 hPa Calm   6.4 km/h 82 % 0.0 mm
22:12 7.2 °C 4.4 °C 1016.8 hPa North 2.6 km/h 4.0 km/h 83 % 0.0 mm
22:17 7.2 °C 4.6 °C 1016.8 hPa Calm   3.5 km/h 84 % 0.0 mm
22:22 7.1 °C 4.4 °C 1016.8 hPa North 1.4 km/h 5.0 km/h 83 % 0.0 mm
22:27 6.8 °C 4.2 °C 1016.8 hPa NNE 1.4 km/h 5.0 km/h 83 % 0.0 mm
22:32 6.8 °C 4.2 °C 1016.8 hPa NW 5.0 km/h 7.6 km/h 84 % 0.0 mm
22:37 6.8 °C 4.3 °C 1016.8 hPa NW 4.0 km/h 10.5 km/h 84 % 0.0 mm
22:43 6.8 °C 4.5 °C 1016.8 hPa NNW 6.9 km/h 10.5 km/h 85 % 0.0 mm
22:48 6.8 °C 4.5 °C 1016.8 hPa NW 6.9 km/h 9.3 km/h 85 % 0.0 mm
22:53 6.8 °C 4.4 °C 1016.8 hPa WNW 1.8 km/h 9.0 km/h 85 % 0.0 mm
22:58 6.7 °C 4.3 °C 1016.8 hPa WNW 1.8 km/h 5.8 km/h 85 % 0.0 mm
23:03 6.6 °C 4.2 °C 1016.8 hPa Calm   5.5 km/h 85 % 0.0 mm
23:08 6.3 °C 3.8 °C 1016.8 hPa Calm   5.0 km/h 84 % 0.0 mm
23:13 6.1 °C 3.6 °C 1016.8 hPa NE 3.5 km/h 5.0 km/h 84 % 0.0 mm
23:18 5.9 °C 3.4 °C 1016.8 hPa ENE 1.4 km/h 4.7 km/h 84 % 0.0 mm
23:23 5.7 °C 3.3 °C 1016.8 hPa Calm   4.7 km/h 85 % 0.0 mm
23:28 5.5 °C 3.2 °C 1016.8 hPa Calm   2.6 km/h 85 % 0.0 mm
23:33 5.4 °C 3.1 °C 1016.8 hPa Calm   2.6 km/h 85 % 0.0 mm
23:38 5.3 °C 3.1 °C 1016.8 hPa Calm   4.7 km/h 86 % 0.0 mm
23:43 5.6 °C 3.6 °C 1016.8 hPa NNE 4.7 km/h 5.5 km/h 87 % 0.0 mm
23:48 5.7 °C 3.8 °C 1016.8 hPa NNW 5.0 km/h 7.6 km/h 88 % 0.0 mm
23:53 5.8 °C 3.9 °C 1016.8 hPa Calm   7.6 km/h 88 % 0.0 mm
23:58 5.7 °C 3.8 °C 1016.8 hPa Calm   5.8 km/h 88 % 0.0 mm
23:59 5.7 °C 3.8 °C 1016.8 hPa Calm   5.8 km/h 88 % 0.0 mm
Le Gheer Warneton
Courtoisie de Weather Underground - 2 mb

Mise a jour : 18/12/2017 17:42:12
Généré par Cumulus 1.9.4 (1099)